Terminal Aerodrome Forecast
Issued by NWS Albuquerque, NM

Home | Current Version | Previous Version | Text Only | Print | Product List | Glossary On
Versions: 1 2 3 4 5 6 7 8 9 10 11 12 13 14 15 16
000
FTUS45 KABQ 252342 RRA
TAFABQ
TAF
KABQ 252342Z 2600/2624 30012G20KT P6SM VCSH BKN070
     FM260400 VRB04KT P6SM FEW060 SCT120
     FM261900 26008KT P6SM SCT060=

USA.gov is the U.S. government's official web portal to all federal, state and local government web resources and services.